sensor_id;sensor_type;location;lat;lon;timestamp;temperature;humidity
2973;DHT22;1496;51.404;7.232;2023-10-31T00:01:35;11.80;99.90
2973;DHT22;1496;51.404;7.232;2023-10-31T00:04:00;11.80;99.90
2973;DHT22;1496;51.404;7.232;2023-10-31T00:06:26;11.70;99.90
2973;DHT22;1496;51.404;7.232;2023-10-31T00:08:52;11.50;99.90
2973;DHT22;1496;51.404;7.232;2023-10-31T00:11:18;11.40;99.90
2973;DHT22;1496;51.404;7.232;2023-10-31T00:13:43;11.30;99.90
2973;DHT22;1496;51.404;7.232;2023-10-31T00:16:09;11.20;99.90
2973;DHT22;1496;51.404;7.232;2023-10-31T00:18:35;11.10;99.90
2973;DHT22;1496;51.404;7.232;2023-10-31T00:21:02;11.00;99.90
2973;DHT22;1496;51.404;7.232;2023-10-31T00:23:28;11.00;99.90
2973;DHT22;1496;51.404;7.232;2023-10-31T00:25:53;10.80;99.90
2973;DHT22;1496;51.404;7.232;2023-10-31T00:28:19;10.80;99.90
2973;DHT22;1496;51.404;7.232;2023-10-31T00:30:45;10.80;99.90
2973;DHT22;1496;51.404;7.232;2023-10-31T00:33:11;10.70;99.90
2973;DHT22;1496;51.404;7.232;2023-10-31T00:35:37;10.60;99.90
2973;DHT22;1496;51.404;7.232;2023-10-31T00:38:03;10.50;99.90
2973;DHT22;1496;51.404;7.232;2023-10-31T00:40:28;10.60;99.90
2973;DHT22;1496;51.404;7.232;2023-10-31T00:42:54;10.50;99.90
2973;DHT22;1496;51.404;7.232;2023-10-31T00:45:21;10.50;99.90
2973;DHT22;1496;51.404;7.232;2023-10-31T00:47:47;10.50;99.90
2973;DHT22;1496;51.404;7.232;2023-10-31T00:50:12;10.50;99.90
2973;DHT22;1496;51.404;7.232;2023-10-31T00:52:38;10.40;99.90
2973;DHT22;1496;51.404;7.232;2023-10-31T00:55:04;10.40;99.90
2973;DHT22;1496;51.404;7.232;2023-10-31T00:57:30;10.50;99.90
2973;DHT22;1496;51.404;7.232;2023-10-31T00:59:58;10.40;99.90
2973;DHT22;1496;51.404;7.232;2023-10-31T01:02:24;10.40;99.90
2973;DHT22;1496;51.404;7.232;2023-10-31T01:04:50;10.40;99.90
2973;DHT22;1496;51.404;7.232;2023-10-31T01:07:15;10.40;99.90
2973;DHT22;1496;51.404;7.232;2023-10-31T01:09:43;10.30;99.90
2973;DHT22;1496;51.404;7.232;2023-10-31T01:12:09;10.20;99.90
2973;DHT22;1496;51.404;7.232;2023-10-31T01:14:36;10.20;99.90
2973;DHT22;1496;51.404;7.232;2023-10-31T01:17:02;10.10;99.90
2973;DHT22;1496;51.404;7.232;2023-10-31T01:19:28;10.10;99.90
2973;DHT22;1496;51.404;7.232;2023-10-31T01:21:54;10.10;99.90
2973;DHT22;1496;51.404;7.232;2023-10-31T01:24:20;10.10;99.90
2973;DHT22;1496;51.404;7.232;2023-10-31T01:26:45;10.20;99.90
2973;DHT22;1496;51.404;7.232;2023-10-31T01:29:11;10.20;99.90
2973;DHT22;1496;51.404;7.232;2023-10-31T01:31:37;10.20;99.90
2973;DHT22;1496;51.404;7.232;2023-10-31T01:34:03;10.20;99.90
2973;DHT22;1496;51.404;7.232;2023-10-31T01:36:28;10.20;99.90
2973;DHT22;1496;51.404;7.232;2023-10-31T01:38:57;10.20;99.90
2973;DHT22;1496;51.404;7.232;2023-10-31T01:41:22;9.90;99.90
2973;DHT22;1496;51.404;7.232;2023-10-31T01:43:48;9.90;99.90
2973;DHT22;1496;51.404;7.232;2023-10-31T01:46:14;10.00;99.90
2973;DHT22;1496;51.404;7.232;2023-10-31T01:48:40;9.90;99.90
2973;DHT22;1496;51.404;7.232;2023-10-31T01:51:07;9.90;99.90
2973;DHT22;1496;51.404;7.232;2023-10-31T01:53:33;9.90;99.90
2973;DHT22;1496;51.404;7.232;2023-10-31T01:56:00;9.90;99.90
2973;DHT22;1496;51.404;7.232;2023-10-31T01:58:31;10.00;99.90
2973;DHT22;1496;51.404;7.232;2023-10-31T02:00:57;10.10;99.90
2973;DHT22;1496;51.404;7.232;2023-10-31T02:03:24;10.10;99.90
2973;DHT22;1496;51.404;7.232;2023-10-31T02:05:51;10.10;99.90
2973;DHT22;1496;51.404;7.232;2023-10-31T02:08:17;10.10;99.90
2973;DHT22;1496;51.404;7.232;2023-10-31T02:10:43;10.10;99.90
2973;DHT22;1496;51.404;7.232;2023-10-31T02:13:15;10.00;99.90
2973;DHT22;1496;51.404;7.232;2023-10-31T02:15:42;10.00;99.90
2973;DHT22;1496;51.404;7.232;2023-10-31T02:18:08;10.00;99.90
2973;DHT22;1496;51.404;7.232;2023-10-31T02:20:35;9.90;99.90
2973;DHT22;1496;51.404;7.232;2023-10-31T02:23:02;9.90;99.90
2973;DHT22;1496;51.404;7.232;2023-10-31T02:25:29;9.90;99.90
2973;DHT22;1496;51.404;7.232;2023-10-31T02:27:54;9.90;99.90
2973;DHT22;1496;51.404;7.232;2023-10-31T02:30:20;9.90;99.90
2973;DHT22;1496;51.404;7.232;2023-10-31T02:32:46;9.90;99.90
2973;DHT22;1496;51.404;7.232;2023-10-31T02:35:12;9.80;99.90
2973;DHT22;1496;51.404;7.232;2023-10-31T02:37:38;9.80;99.90
2973;DHT22;1496;51.404;7.232;2023-10-31T02:40:04;9.80;99.90
2973;DHT22;1496;51.404;7.232;2023-10-31T02:42:30;9.80;99.90
2973;DHT22;1496;51.404;7.232;2023-10-31T02:44:56;9.80;99.90
2973;DHT22;1496;51.404;7.232;2023-10-31T02:47:22;9.80;99.90
2973;DHT22;1496;51.404;7.232;2023-10-31T02:49:47;9.80;99.90
2973;DHT22;1496;51.404;7.232;2023-10-31T02:52:13;9.90;99.90
2973;DHT22;1496;51.404;7.232;2023-10-31T02:54:38;9.90;99.90
2973;DHT22;1496;51.404;7.232;2023-10-31T02:57:04;9.90;99.90
2973;DHT22;1496;51.404;7.232;2023-10-31T02:59:30;9.80;99.90
2973;DHT22;1496;51.404;7.232;2023-10-31T03:01:57;9.70;99.90
2973;DHT22;1496;51.404;7.232;2023-10-31T03:04:23;9.70;99.90
2973;DHT22;1496;51.404;7.232;2023-10-31T03:06:49;9.70;99.90
2973;DHT22;1496;51.404;7.232;2023-10-31T03:09:15;9.70;99.90
2973;DHT22;1496;51.404;7.232;2023-10-31T03:11:41;9.70;99.90
2973;DHT22;1496;51.404;7.232;2023-10-31T03:14:06;9.70;99.90
2973;DHT22;1496;51.404;7.232;2023-10-31T03:16:32;9.70;99.90
2973;DHT22;1496;51.404;7.232;2023-10-31T03:18:58;9.80;99.90
2973;DHT22;1496;51.404;7.232;2023-10-31T03:21:24;9.90;99.90
2973;DHT22;1496;51.404;7.232;2023-10-31T03:23:51;9.90;99.90
2973;DHT22;1496;51.404;7.232;2023-10-31T03:26:19;10.00;99.90
2973;DHT22;1496;51.404;7.232;2023-10-31T03:28:46;10.00;99.90
2973;DHT22;1496;51.404;7.232;2023-10-31T03:31:14;9.90;99.90
2973;DHT22;1496;51.404;7.232;2023-10-31T03:33:41;10.00;99.90
2973;DHT22;1496;51.404;7.232;2023-10-31T03:36:08;10.00;99.90
2973;DHT22;1496;51.404;7.232;2023-10-31T03:38:34;10.00;99.90
2973;DHT22;1496;51.404;7.232;2023-10-31T03:41:01;10.00;99.90
2973;DHT22;1496;51.404;7.232;2023-10-31T03:43:27;10.00;99.90
2973;DHT22;1496;51.404;7.232;2023-10-31T03:45:53;10.00;99.90
2973;DHT22;1496;51.404;7.232;2023-10-31T03:48:19;10.00;99.90
2973;DHT22;1496;51.404;7.232;2023-10-31T03:50:44;10.00;99.90
2973;DHT22;1496;51.404;7.232;2023-10-31T03:53:10;10.00;99.90
2973;DHT22;1496;51.404;7.232;2023-10-31T03:55:39;9.90;99.90
2973;DHT22;1496;51.404;7.232;2023-10-31T03:58:05;9.90;99.90
2973;DHT22;1496;51.404;7.232;2023-10-31T04:00:31;9.90;99.90
2973;DHT22;1496;51.404;7.232;2023-10-31T04:02:57;9.90;99.90
2973;DHT22;1496;51.404;7.232;2023-10-31T04:05:23;9.90;99.90
2973;DHT22;1496;51.404;7.232;2023-10-31T04:07:49;9.90;99.90
2973;DHT22;1496;51.404;7.232;2023-10-31T04:10:16;9.90;99.90
2973;DHT22;1496;51.404;7.232;2023-10-31T04:12:41;9.90;99.90
2973;DHT22;1496;51.404;7.232;2023-10-31T04:15:08;9.90;99.90
2973;DHT22;1496;51.404;7.232;2023-10-31T04:17:34;9.90;99.90
2973;DHT22;1496;51.404;7.232;2023-10-31T04:20:00;9.90;99.90
2973;DHT22;1496;51.404;7.232;2023-10-31T04:22:25;9.90;99.90
2973;DHT22;1496;51.404;7.232;2023-10-31T04:24:51;9.90;99.90
2973;DHT22;1496;51.404;7.232;2023-10-31T04:27:17;9.90;99.90
2973;DHT22;1496;51.404;7.232;2023-10-31T04:29:42;9.90;99.90
2973;DHT22;1496;51.404;7.232;2023-10-31T04:32:08;9.80;99.90
2973;DHT22;1496;51.404;7.232;2023-10-31T04:34:34;9.80;99.90
2973;DHT22;1496;51.404;7.232;2023-10-31T04:37:00;9.70;99.90
2973;DHT22;1496;51.404;7.232;2023-10-31T04:39:25;9.60;99.90
2973;DHT22;1496;51.404;7.232;2023-10-31T04:41:51;9.60;99.90
2973;DHT22;1496;51.404;7.232;2023-10-31T04:44:17;9.60;99.90
2973;DHT22;1496;51.404;7.232;2023-10-31T04:46:43;9.60;99.90
2973;DHT22;1496;51.404;7.232;2023-10-31T04:49:09;9.70;99.90
2973;DHT22;1496;51.404;7.232;2023-10-31T04:51:38;9.70;99.90
2973;DHT22;1496;51.404;7.232;2023-10-31T04:54:04;9.60;99.90
2973;DHT22;1496;51.404;7.232;2023-10-31T04:56:30;9.80;99.90
2973;DHT22;1496;51.404;7.232;2023-10-31T04:58:56;9.80;99.90
2973;DHT22;1496;51.404;7.232;2023-10-31T05:01:21;9.80;99.90
2973;DHT22;1496;51.404;7.232;2023-10-31T05:03:47;9.80;99.90
2973;DHT22;1496;51.404;7.232;2023-10-31T05:06:13;9.80;99.90
2973;DHT22;1496;51.404;7.232;2023-10-31T05:08:38;9.80;99.90
2973;DHT22;1496;51.404;7.232;2023-10-31T05:11:04;9.80;99.90
2973;DHT22;1496;51.404;7.232;2023-10-31T05:13:30;9.80;99.90
2973;DHT22;1496;51.404;7.232;2023-10-31T05:15:56;9.80;99.90
2973;DHT22;1496;51.404;7.232;2023-10-31T05:18:21;9.80;99.90
2973;DHT22;1496;51.404;7.232;2023-10-31T05:20:47;9.90;99.90
2973;DHT22;1496;51.404;7.232;2023-10-31T05:23:13;9.90;99.90
2973;DHT22;1496;51.404;7.232;2023-10-31T05:25:39;9.80;99.90
2973;DHT22;1496;51.404;7.232;2023-10-31T05:28:05;9.80;99.90
2973;DHT22;1496;51.404;7.232;2023-10-31T05:30:31;9.80;99.90
2973;DHT22;1496;51.404;7.232;2023-10-31T05:32:56;9.80;99.90
2973;DHT22;1496;51.404;7.232;2023-10-31T05:35:22;9.80;99.90
2973;DHT22;1496;51.404;7.232;2023-10-31T05:37:48;9.80;99.90
2973;DHT22;1496;51.404;7.232;2023-10-31T05:40:15;9.80;99.90
2973;DHT22;1496;51.404;7.232;2023-10-31T05:42:41;9.80;99.90
2973;DHT22;1496;51.404;7.232;2023-10-31T05:45:07;9.80;99.90
2973;DHT22;1496;51.404;7.232;2023-10-31T05:47:33;9.80;99.90
2973;DHT22;1496;51.404;7.232;2023-10-31T05:49:59;9.80;99.90
2973;DHT22;1496;51.404;7.232;2023-10-31T05:52:28;9.70;99.90
2973;DHT22;1496;51.404;7.232;2023-10-31T05:54:55;9.80;99.90
2973;DHT22;1496;51.404;7.232;2023-10-31T05:57:21;9.80;99.90
2973;DHT22;1496;51.404;7.232;2023-10-31T05:59:47;9.80;99.90
2973;DHT22;1496;51.404;7.232;2023-10-31T06:02:16;9.70;99.90
2973;DHT22;1496;51.404;7.232;2023-10-31T06:04:42;9.80;99.90
2973;DHT22;1496;51.404;7.232;2023-10-31T06:07:07;9.70;99.90
2973;DHT22;1496;51.404;7.232;2023-10-31T06:09:33;9.70;99.90
2973;DHT22;1496;51.404;7.232;2023-10-31T06:12:00;9.80;99.90
2973;DHT22;1496;51.404;7.232;2023-10-31T06:14:26;9.70;99.90
2973;DHT22;1496;51.404;7.232;2023-10-31T06:16:53;9.70;99.90
2973;DHT22;1496;51.404;7.232;2023-10-31T06:19:20;9.70;99.90
2973;DHT22;1496;51.404;7.232;2023-10-31T06:21:46;9.70;99.90
2973;DHT22;1496;51.404;7.232;2023-10-31T06:24:11;9.70;99.90
2973;DHT22;1496;51.404;7.232;2023-10-31T06:26:37;9.70;99.90
2973;DHT22;1496;51.404;7.232;2023-10-31T06:29:03;9.70;99.90
2973;DHT22;1496;51.404;7.232;2023-10-31T06:31:29;9.60;99.90
2973;DHT22;1496;51.404;7.232;2023-10-31T06:33:55;9.50;99.90
2973;DHT22;1496;51.404;7.232;2023-10-31T06:36:23;9.50;99.90
2973;DHT22;1496;51.404;7.232;2023-10-31T06:38:51;9.60;99.90
2973;DHT22;1496;51.404;7.232;2023-10-31T06:41:17;9.60;99.90
2973;DHT22;1496;51.404;7.232;2023-10-31T06:43:43;9.60;99.90
2973;DHT22;1496;51.404;7.232;2023-10-31T06:46:09;9.60;99.90
2973;DHT22;1496;51.404;7.232;2023-10-31T06:48:35;9.70;99.90
2973;DHT22;1496;51.404;7.232;2023-10-31T06:51:01;9.70;99.90
2973;DHT22;1496;51.404;7.232;2023-10-31T06:53:26;9.70;99.90
2973;DHT22;1496;51.404;7.232;2023-10-31T06:55:52;9.70;99.90
2973;DHT22;1496;51.404;7.232;2023-10-31T06:58:17;9.70;99.90
2973;DHT22;1496;51.404;7.232;2023-10-31T07:00:43;9.80;99.90
2973;DHT22;1496;51.404;7.232;2023-10-31T07:03:09;9.80;99.90
2973;DHT22;1496;51.404;7.232;2023-10-31T07:05:41;9.80;99.90
2973;DHT22;1496;51.404;7.232;2023-10-31T07:08:07;9.80;99.90
2973;DHT22;1496;51.404;7.232;2023-10-31T07:10:32;9.80;99.90
2973;DHT22;1496;51.404;7.232;2023-10-31T07:12:59;9.80;99.90
2973;DHT22;1496;51.404;7.232;2023-10-31T07:15:25;9.80;99.90
2973;DHT22;1496;51.404;7.232;2023-10-31T07:17:51;9.80;99.90
2973;DHT22;1496;51.404;7.232;2023-10-31T07:20:17;9.90;99.90
2973;DHT22;1496;51.404;7.232;2023-10-31T07:22:43;9.80;99.90
2973;DHT22;1496;51.404;7.232;2023-10-31T07:25:09;9.80;99.90
2973;DHT22;1496;51.404;7.232;2023-10-31T07:27:35;9.90;99.90
2973;DHT22;1496;51.404;7.232;2023-10-31T07:30:03;9.80;99.90
2973;DHT22;1496;51.404;7.232;2023-10-31T07:32:29;9.80;99.90
2973;DHT22;1496;51.404;7.232;2023-10-31T07:34:55;9.70;99.90
2973;DHT22;1496;51.404;7.232;2023-10-31T07:37:21;9.70;99.90
2973;DHT22;1496;51.404;7.232;2023-10-31T07:39:46;9.70;99.90
2973;DHT22;1496;51.404;7.232;2023-10-31T07:42:12;9.70;99.90
2973;DHT22;1496;51.404;7.232;2023-10-31T07:44:38;9.80;99.90
2973;DHT22;1496;51.404;7.232;2023-10-31T07:47:03;9.70;99.90
2973;DHT22;1496;51.404;7.232;2023-10-31T07:49:29;9.80;99.90
2973;DHT22;1496;51.404;7.232;2023-10-31T07:51:55;9.90;99.90
2973;DHT22;1496;51.404;7.232;2023-10-31T07:54:21;9.90;99.90
2973;DHT22;1496;51.404;7.232;2023-10-31T07:56:47;10.00;99.90
2973;DHT22;1496;51.404;7.232;2023-10-31T07:59:13;10.00;99.90
2973;DHT22;1496;51.404;7.232;2023-10-31T08:01:38;9.90;99.90
2973;DHT22;1496;51.404;7.232;2023-10-31T08:04:04;10.00;99.90
2973;DHT22;1496;51.404;7.232;2023-10-31T08:06:30;10.00;99.90
2973;DHT22;1496;51.404;7.232;2023-10-31T08:08:56;10.10;99.90
2973;DHT22;1496;51.404;7.232;2023-10-31T08:11:21;10.00;99.90
2973;DHT22;1496;51.404;7.232;2023-10-31T08:13:47;10.00;99.90
2973;DHT22;1496;51.404;7.232;2023-10-31T08:16:17;10.00;99.90
2973;DHT22;1496;51.404;7.232;2023-10-31T08:18:44;10.00;99.90
2973;DHT22;1496;51.404;7.232;2023-10-31T08:21:11;10.00;99.90
2973;DHT22;1496;51.404;7.232;2023-10-31T08:23:37;10.00;99.90
2973;DHT22;1496;51.404;7.232;2023-10-31T08:26:03;10.00;99.90
2973;DHT22;1496;51.404;7.232;2023-10-31T08:28:28;10.00;99.90
2973;DHT22;1496;51.404;7.232;2023-10-31T08:30:54;10.00;99.90
2973;DHT22;1496;51.404;7.232;2023-10-31T08:33:20;10.10;99.90
2973;DHT22;1496;51.404;7.232;2023-10-31T08:35:45;10.00;99.90
2973;DHT22;1496;51.404;7.232;2023-10-31T08:38:13;10.20;99.90
2973;DHT22;1496;51.404;7.232;2023-10-31T08:40:38;10.20;99.90
2973;DHT22;1496;51.404;7.232;2023-10-31T08:43:04;10.20;99.90
2973;DHT22;1496;51.404;7.232;2023-10-31T08:45:32;10.20;99.90
2973;DHT22;1496;51.404;7.232;2023-10-31T08:47:59;10.20;99.90
2973;DHT22;1496;51.404;7.232;2023-10-31T08:50:25;10.20;99.90
2973;DHT22;1496;51.404;7.232;2023-10-31T08:52:50;10.20;99.90
2973;DHT22;1496;51.404;7.232;2023-10-31T08:55:16;10.20;99.90
2973;DHT22;1496;51.404;7.232;2023-10-31T08:57:42;10.20;99.90
2973;DHT22;1496;51.404;7.232;2023-10-31T09:00:08;10.20;99.90
2973;DHT22;1496;51.404;7.232;2023-10-31T09:02:34;10.20;99.90
2973;DHT22;1496;51.404;7.232;2023-10-31T09:04:59;10.20;99.90
2973;DHT22;1496;51.404;7.232;2023-10-31T09:07:25;10.20;99.90
2973;DHT22;1496;51.404;7.232;2023-10-31T09:09:51;10.20;99.90
2973;DHT22;1496;51.404;7.232;2023-10-31T09:12:17;10.10;99.90
2973;DHT22;1496;51.404;7.232;2023-10-31T09:14:42;10.30;99.90
2973;DHT22;1496;51.404;7.232;2023-10-31T09:17:08;10.20;99.90
2973;DHT22;1496;51.404;7.232;2023-10-31T09:19:37;10.10;99.90
2973;DHT22;1496;51.404;7.232;2023-10-31T09:22:02;10.00;99.90
2973;DHT22;1496;51.404;7.232;2023-10-31T09:24:28;10.00;99.90
2973;DHT22;1496;51.404;7.232;2023-10-31T09:26:54;10.00;99.90
2973;DHT22;1496;51.404;7.232;2023-10-31T09:29:20;10.00;99.90
2973;DHT22;1496;51.404;7.232;2023-10-31T09:31:46;10.10;99.90
2973;DHT22;1496;51.404;7.232;2023-10-31T09:34:13;10.20;99.90
2973;DHT22;1496;51.404;7.232;2023-10-31T09:36:40;10.30;99.90
2973;DHT22;1496;51.404;7.232;2023-10-31T09:39:05;10.40;99.90
2973;DHT22;1496;51.404;7.232;2023-10-31T09:41:31;10.50;99.90
2973;DHT22;1496;51.404;7.232;2023-10-31T09:44:00;10.50;99.90
2973;DHT22;1496;51.404;7.232;2023-10-31T09:46:28;10.50;99.90
2973;DHT22;1496;51.404;7.232;2023-10-31T09:48:55;10.50;99.90
2973;DHT22;1496;51.404;7.232;2023-10-31T09:51:21;10.60;99.90
2973;DHT22;1496;51.404;7.232;2023-10-31T09:53:47;10.60;99.90
2973;DHT22;1496;51.404;7.232;2023-10-31T09:56:14;10.80;99.90
2973;DHT22;1496;51.404;7.232;2023-10-31T09:58:39;10.80;99.90
2973;DHT22;1496;51.404;7.232;2023-10-31T10:01:07;10.80;99.90
2973;DHT22;1496;51.404;7.232;2023-10-31T10:03:32;11.00;99.90
2973;DHT22;1496;51.404;7.232;2023-10-31T10:05:58;10.90;99.90
2973;DHT22;1496;51.404;7.232;2023-10-31T10:08:24;11.00;99.90
2973;DHT22;1496;51.404;7.232;2023-10-31T10:10:50;10.90;99.90
2973;DHT22;1496;51.404;7.232;2023-10-31T10:13:23;11.00;99.90
2973;DHT22;1496;51.404;7.232;2023-10-31T10:15:50;11.10;99.90
2973;DHT22;1496;51.404;7.232;2023-10-31T10:18:31;11.20;99.90
2973;DHT22;1496;51.404;7.232;2023-10-31T10:20:58;11.10;99.90
2973;DHT22;1496;51.404;7.232;2023-10-31T10:23:27;11.20;99.90
2973;DHT22;1496;51.404;7.232;2023-10-31T10:25:56;11.20;99.90
2973;DHT22;1496;51.404;7.232;2023-10-31T10:28:22;11.20;99.90
2973;DHT22;1496;51.404;7.232;2023-10-31T10:30:50;11.10;99.90
2973;DHT22;1496;51.404;7.232;2023-10-31T10:33:17;11.10;99.90
2973;DHT22;1496;51.404;7.232;2023-10-31T10:35:44;11.10;99.90
2973;DHT22;1496;51.404;7.232;2023-10-31T10:38:18;11.10;99.90
2973;DHT22;1496;51.404;7.232;2023-10-31T10:40:46;11.00;99.90
2973;DHT22;1496;51.404;7.232;2023-10-31T10:43:26;11.00;99.90
2973;DHT22;1496;51.404;7.232;2023-10-31T10:45:57;10.90;99.90
2973;DHT22;1496;51.404;7.232;2023-10-31T10:48:28;10.70;99.90
2973;DHT22;1496;51.404;7.232;2023-10-31T10:51:06;10.70;99.90
2973;DHT22;1496;51.404;7.232;2023-10-31T10:53:48;10.80;99.90
2973;DHT22;1496;51.404;7.232;2023-10-31T10:56:25;10.80;99.90
2973;DHT22;1496;51.404;7.232;2023-10-31T10:59:01;10.90;99.90
2973;DHT22;1496;51.404;7.232;2023-10-31T11:01:27;10.90;99.90
2973;DHT22;1496;51.404;7.232;2023-10-31T11:03:55;10.90;99.90
2973;DHT22;1496;51.404;7.232;2023-10-31T11:06:21;10.90;99.90
2973;DHT22;1496;51.404;7.232;2023-10-31T11:08:47;11.00;99.90
2973;DHT22;1496;51.404;7.232;2023-10-31T11:11:14;11.00;99.90
2973;DHT22;1496;51.404;7.232;2023-10-31T11:13:46;11.10;99.90
2973;DHT22;1496;51.404;7.232;2023-10-31T11:16:17;11.20;99.90
2973;DHT22;1496;51.404;7.232;2023-10-31T11:18:46;11.30;99.90
2973;DHT22;1496;51.404;7.232;2023-10-31T11:21:12;11.20;99.90
2973;DHT22;1496;51.404;7.232;2023-10-31T11:23:37;11.30;99.90
2973;DHT22;1496;51.404;7.232;2023-10-31T11:26:07;11.40;99.90
2973;DHT22;1496;51.404;7.232;2023-10-31T11:28:36;11.50;99.90
2973;DHT22;1496;51.404;7.232;2023-10-31T11:31:01;11.50;99.90
2973;DHT22;1496;51.404;7.232;2023-10-31T11:33:28;11.60;99.90
2973;DHT22;1496;51.404;7.232;2023-10-31T11:36:01;11.70;99.90
2973;DHT22;1496;51.404;7.232;2023-10-31T11:38:34;11.80;99.90
2973;DHT22;1496;51.404;7.232;2023-10-31T11:41:02;11.80;99.90
2973;DHT22;1496;51.404;7.232;2023-10-31T11:43:49;11.70;99.90
2973;DHT22;1496;51.404;7.232;2023-10-31T11:46:24;11.80;99.90
2973;DHT22;1496;51.404;7.232;2023-10-31T11:48:52;11.90;99.90
2973;DHT22;1496;51.404;7.232;2023-10-31T11:51:18;12.20;99.90
2973;DHT22;1496;51.404;7.232;2023-10-31T11:53:44;12.10;99.90
2973;DHT22;1496;51.404;7.232;2023-10-31T11:56:19;12.10;99.90
2973;DHT22;1496;51.404;7.232;2023-10-31T11:58:54;12.20;99.90
2973;DHT22;1496;51.404;7.232;2023-10-31T12:01:19;12.20;99.90
2973;DHT22;1496;51.404;7.232;2023-10-31T12:03:45;12.10;99.90
2973;DHT22;1496;51.404;7.232;2023-10-31T12:06:15;12.10;99.90
2973;DHT22;1496;51.404;7.232;2023-10-31T12:08:42;12.00;99.90
2973;DHT22;1496;51.404;7.232;2023-10-31T12:11:13;12.00;99.90
2973;DHT22;1496;51.404;7.232;2023-10-31T12:13:57;11.90;99.90
2973;DHT22;1496;51.404;7.232;2023-10-31T12:16:30;11.70;99.90
2973;DHT22;1496;51.404;7.232;2023-10-31T12:19:05;11.60;76.50
2973;DHT22;1496;51.404;7.232;2023-10-31T12:21:41;11.70;99.90
2973;DHT22;1496;51.404;7.232;2023-10-31T12:24:12;11.90;99.90
2973;DHT22;1496;51.404;7.232;2023-10-31T12:26:39;12.10;99.90
2973;DHT22;1496;51.404;7.232;2023-10-31T12:29:15;12.10;99.90
2973;DHT22;1496;51.404;7.232;2023-10-31T12:31:53;12.30;99.90
2973;DHT22;1496;51.404;7.232;2023-10-31T12:34:20;12.50;99.90
2973;DHT22;1496;51.404;7.232;2023-10-31T12:36:47;12.40;99.90
2973;DHT22;1496;51.404;7.232;2023-10-31T12:39:13;12.30;16.00
2973;DHT22;1496;51.404;7.232;2023-10-31T12:41:41;12.40;54.70
2973;DHT22;1496;51.404;7.232;2023-10-31T12:44:07;12.50;99.90
2973;DHT22;1496;51.404;7.232;2023-10-31T12:46:40;12.40;97.70
2973;DHT22;1496;51.404;7.232;2023-10-31T12:49:16;12.30;99.90
2973;DHT22;1496;51.404;7.232;2023-10-31T12:51:59;12.20;1.00
2973;DHT22;1496;51.404;7.232;2023-10-31T12:54:36;12.20;12.80
2973;DHT22;1496;51.404;7.232;2023-10-31T12:57:04;12.30;30.20
2973;DHT22;1496;51.404;7.232;2023-10-31T12:59:34;12.40;81.70
2973;DHT22;1496;51.404;7.232;2023-10-31T13:02:00;12.60;99.90
2973;DHT22;1496;51.404;7.232;2023-10-31T13:04:30;12.80;99.90
2973;DHT22;1496;51.404;7.232;2023-10-31T13:07:01;12.90;99.90
2973;DHT22;1496;51.404;7.232;2023-10-31T13:09:37;13.00;99.90
2973;DHT22;1496;51.404;7.232;2023-10-31T13:12:06;12.70;1.00
2973;DHT22;1496;51.404;7.232;2023-10-31T13:14:32;12.80;99.90
2973;DHT22;1496;51.404;7.232;2023-10-31T13:17:05;12.80;99.90
2973;DHT22;1496;51.404;7.232;2023-10-31T13:19:31;12.90;99.90
2973;DHT22;1496;51.404;7.232;2023-10-31T13:21:56;12.80;99.90
2973;DHT22;1496;51.404;7.232;2023-10-31T13:24:22;12.70;99.90
2973;DHT22;1496;51.404;7.232;2023-10-31T13:26:49;12.80;99.90
2973;DHT22;1496;51.404;7.232;2023-10-31T13:29:19;12.80;99.90
2973;DHT22;1496;51.404;7.232;2023-10-31T13:31:55;12.90;99.90
2973;DHT22;1496;51.404;7.232;2023-10-31T13:34:21;12.80;99.90
2973;DHT22;1496;51.404;7.232;2023-10-31T13:36:46;12.70;99.90
2973;DHT22;1496;51.404;7.232;2023-10-31T13:39:12;12.70;99.90
2973;DHT22;1496;51.404;7.232;2023-10-31T13:41:37;12.60;99.90
2973;DHT22;1496;51.404;7.232;2023-10-31T13:44:04;12.60;99.90
2973;DHT22;1496;51.404;7.232;2023-10-31T13:46:30;12.50;99.90
2973;DHT22;1496;51.404;7.232;2023-10-31T13:48:56;12.40;99.90
2973;DHT22;1496;51.404;7.232;2023-10-31T13:51:22;12.30;99.90
2973;DHT22;1496;51.404;7.232;2023-10-31T13:53:47;12.30;99.90
2973;DHT22;1496;51.404;7.232;2023-10-31T13:56:15;12.40;99.90
2973;DHT22;1496;51.404;7.232;2023-10-31T13:58:41;12.30;99.90
2973;DHT22;1496;51.404;7.232;2023-10-31T14:01:07;12.30;99.90
2973;DHT22;1496;51.404;7.232;2023-10-31T14:03:32;12.20;99.90
2973;DHT22;1496;51.404;7.232;2023-10-31T14:05:58;12.30;99.90
2973;DHT22;1496;51.404;7.232;2023-10-31T14:08:24;12.30;99.90
2973;DHT22;1496;51.404;7.232;2023-10-31T14:10:50;12.30;99.90
2973;DHT22;1496;51.404;7.232;2023-10-31T14:13:16;12.30;99.90
2973;DHT22;1496;51.404;7.232;2023-10-31T14:15:42;12.30;99.90
2973;DHT22;1496;51.404;7.232;2023-10-31T14:18:08;12.20;99.90
2973;DHT22;1496;51.404;7.232;2023-10-31T14:20:33;12.10;99.90
2973;DHT22;1496;51.404;7.232;2023-10-31T14:22:59;12.00;99.90
2973;DHT22;1496;51.404;7.232;2023-10-31T14:25:24;11.90;99.90
2973;DHT22;1496;51.404;7.232;2023-10-31T14:27:50;12.00;99.90
2973;DHT22;1496;51.404;7.232;2023-10-31T14:30:16;12.00;99.90
2973;DHT22;1496;51.404;7.232;2023-10-31T14:32:42;12.00;99.90
2973;DHT22;1496;51.404;7.232;2023-10-31T14:35:08;12.00;99.90
2973;DHT22;1496;51.404;7.232;2023-10-31T14:37:34;12.00;99.90
2973;DHT22;1496;51.404;7.232;2023-10-31T14:40:00;12.00;99.90
2973;DHT22;1496;51.404;7.232;2023-10-31T14:42:28;12.00;99.90
2973;DHT22;1496;51.404;7.232;2023-10-31T14:44:53;11.90;99.90
2973;DHT22;1496;51.404;7.232;2023-10-31T14:47:22;11.90;99.90
2973;DHT22;1496;51.404;7.232;2023-10-31T14:49:47;12.00;99.90
2973;DHT22;1496;51.404;7.232;2023-10-31T14:52:13;12.00;99.90
2973;DHT22;1496;51.404;7.232;2023-10-31T14:54:39;12.00;99.90
2973;DHT22;1496;51.404;7.232;2023-10-31T14:57:05;12.00;99.90
2973;DHT22;1496;51.404;7.232;2023-10-31T14:59:30;12.00;99.90
2973;DHT22;1496;51.404;7.232;2023-10-31T15:01:57;12.00;99.90
2973;DHT22;1496;51.404;7.232;2023-10-31T15:04:22;12.00;99.90
2973;DHT22;1496;51.404;7.232;2023-10-31T15:06:48;12.00;99.90
2973;DHT22;1496;51.404;7.232;2023-10-31T15:09:14;12.00;99.90
2973;DHT22;1496;51.404;7.232;2023-10-31T15:11:39;11.90;99.90
2973;DHT22;1496;51.404;7.232;2023-10-31T15:14:05;12.00;99.90
2973;DHT22;1496;51.404;7.232;2023-10-31T15:16:31;11.90;99.90
2973;DHT22;1496;51.404;7.232;2023-10-31T15:18:59;11.80;99.90
2973;DHT22;1496;51.404;7.232;2023-10-31T15:21:25;11.80;99.90
2973;DHT22;1496;51.404;7.232;2023-10-31T15:23:51;11.70;99.90
2973;DHT22;1496;51.404;7.232;2023-10-31T15:26:17;11.70;99.90
2973;DHT22;1496;51.404;7.232;2023-10-31T15:28:43;11.70;99.90
2973;DHT22;1496;51.404;7.232;2023-10-31T15:31:10;11.50;99.90
2973;DHT22;1496;51.404;7.232;2023-10-31T15:33:35;11.50;99.90
2973;DHT22;1496;51.404;7.232;2023-10-31T15:36:01;11.40;99.90
2973;DHT22;1496;51.404;7.232;2023-10-31T15:38:27;11.40;99.90
2973;DHT22;1496;51.404;7.232;2023-10-31T15:40:52;11.40;99.90
2973;DHT22;1496;51.404;7.232;2023-10-31T15:43:18;11.40;99.90
2973;DHT22;1496;51.404;7.232;2023-10-31T15:45:44;11.30;99.90
2973;DHT22;1496;51.404;7.232;2023-10-31T15:48:09;11.20;99.90
2973;DHT22;1496;51.404;7.232;2023-10-31T15:50:35;11.20;99.90
2973;DHT22;1496;51.404;7.232;2023-10-31T15:53:02;11.20;99.90
2973;DHT22;1496;51.404;7.232;2023-10-31T15:55:28;11.20;99.90
2973;DHT22;1496;51.404;7.232;2023-10-31T15:57:54;11.10;1.00
2973;DHT22;1496;51.404;7.232;2023-10-31T16:00:20;11.10;99.90
2973;DHT22;1496;51.404;7.232;2023-10-31T16:02:46;11.20;99.90
2973;DHT22;1496;51.404;7.232;2023-10-31T16:05:12;11.10;99.90